^^
Station Historical Data
Daily Summary for March 16, 2019 Units:  English    Metric   Both
« Previous Day
Next Day »
Daily Weekly Monthly Yearly Custom
  High: Low: Average:
Temperature: 33.9 °F 21.0 °F 26.3 °F
Dew Point: 29.1 °F 19.0 °F 23.5 °F
Humidity: 93% 81% 89%
Wind Speed: 17.0mph 0.0mph 4.9mph
Wind Gust: 18.0mph - -
Wind- - SSW
Pressure: 30.33 in 30.21 in -
Precipitation: 0.00 in    
Historical Graphs
 
 
Tabular Data for March 16, 2019
Time Temperature Dew Point Pressure Wind Wind Speed Wind Gust Humidity Rainfall Rate (Hourly) solar Conditions
00:04 26.0 °F 22.9 °F 30.22 in SE 3.0 mph 4.0 mph 88% 0.00 in 0.00 W/m2
00:09 26.0 °F 22.9 °F 30.21 in SE 3.0 mph 4.0 mph 88% 0.00 in 0.00 W/m2
00:14 26.1 °F 23.0 °F 30.22 in SE 2.0 mph 4.0 mph 88% 0.00 in 0.00 W/m2
00:19 26.2 °F 23.1 °F 30.22 in SE 2.0 mph 3.0 mph 88% 0.00 in 0.00 W/m2
00:24 26.3 °F 23.2 °F 30.21 in SE 3.0 mph 4.0 mph 88% 0.00 in 0.00 W/m2
00:29 26.4 °F 23.3 °F 30.21 in SE 2.0 mph 4.0 mph 88% 0.00 in 0.00 W/m2
00:34 26.2 °F 22.9 °F 30.21 in SE 2.0 mph 4.0 mph 87% 0.00 in 0.00 W/m2
00:39 26.1 °F 22.8 °F 30.21 in SE 2.0 mph 3.0 mph 87% 0.00 in 0.00 W/m2
00:44 26.0 °F 22.9 °F 30.22 in SE 2.0 mph 3.0 mph 88% 0.00 in 0.00 W/m2
00:49 25.8 °F 22.7 °F 30.22 in SE 3.0 mph 3.0 mph 88% 0.00 in 0.00 W/m2
00:54 25.5 °F 22.2 °F 30.21 in SE 2.0 mph 3.0 mph 87% 0.00 in 0.00 W/m2
00:59 25.2 °F 22.1 °F 30.21 in SE 3.0 mph 4.0 mph 88% 0.00 in 0.00 W/m2
01:04 25.2 °F 22.1 °F 30.21 in SE 3.0 mph 4.0 mph 88% 0.00 in 0.00 W/m2
01:09 25.2 °F 22.4 °F 30.21 in SE 3.0 mph 4.0 mph 89% 0.00 in 0.00 W/m2
01:14 25.2 °F 22.4 °F 30.21 in SE 1.0 mph 4.0 mph 89% 0.00 in 0.00 W/m2
01:19 25.2 °F 22.4 °F 30.21 in SE 3.0 mph 4.0 mph 89% 0.00 in 0.00 W/m2
01:24 25.1 °F 22.3 °F 30.21 in SE 4.0 mph 4.0 mph 89% 0.00 in 0.00 W/m2
01:29 25.1 °F 22.3 °F 30.21 in SE 3.0 mph 4.0 mph 89% 0.00 in 0.00 W/m2
01:34 24.9 °F 22.1 °F 30.21 in SE 4.0 mph 5.0 mph 89% 0.00 in 0.00 W/m2
01:39 24.7 °F 21.9 °F 30.21 in SE 4.0 mph 5.0 mph 89% 0.00 in 0.00 W/m2
01:44 24.4 °F 21.6 °F 30.21 in SE 4.0 mph 5.0 mph 89% 0.00 in 0.00 W/m2
01:49 24.2 °F 21.4 °F 30.21 in ESE 3.0 mph 5.0 mph 89% 0.00 in 0.00 W/m2
01:54 23.9 °F 21.1 °F 30.21 in ESE 4.0 mph 5.0 mph 89% 0.00 in 0.00 W/m2
01:59 23.6 °F 20.8 °F 30.21 in ESE 3.0 mph 5.0 mph 89% 0.00 in 0.00 W/m2
02:04 23.2 °F 20.4 °F 30.21 in ESE 3.0 mph 5.0 mph 89% 0.00 in 0.00 W/m2
02:09 22.8 °F 20.3 °F 30.21 in East 6.0 mph 6.0 mph 90% 0.00 in 0.00 W/m2
02:14 22.7 °F 20.2 °F 30.21 in East 5.0 mph 6.0 mph 90% 0.00 in 0.00 W/m2
02:19 22.8 °F 20.6 °F 30.21 in East 6.0 mph 7.0 mph 91% 0.00 in 0.00 W/m2
02:24 22.8 °F 20.6 °F 30.21 in ENE 5.0 mph 7.0 mph 91% 0.00 in 0.00 W/m2
02:29 22.7 °F 20.5 °F 30.21 in East 5.0 mph 7.0 mph 91% 0.00 in 0.00 W/m2
02:34 22.5 °F 20.3 °F 30.21 in East 5.0 mph 7.0 mph 91% 0.00 in 0.00 W/m2
02:39 22.5 °F 20.3 °F 30.21 in East 5.0 mph 7.0 mph 91% 0.00 in 0.00 W/m2
02:44 22.6 °F 20.4 °F 30.21 in ENE 5.0 mph 7.0 mph 91% 0.00 in 0.00 W/m2
02:49 22.5 °F 20.3 °F 30.21 in ENE 3.0 mph 7.0 mph 91% 0.00 in 0.00 W/m2
02:54 22.3 °F 20.1 °F 30.22 in East 5.0 mph 7.0 mph 91% 0.00 in 0.00 W/m2
02:59 22.4 °F 20.2 °F 30.22 in East 3.0 mph 6.0 mph 91% 0.00 in 0.00 W/m2
03:04 22.4 °F 20.4 °F 30.22 in East 3.0 mph 6.0 mph 92% 0.00 in 0.00 W/m2
03:09 22.5 °F 20.5 °F 30.22 in East 5.0 mph 6.0 mph 92% 0.00 in 0.00 W/m2
03:14 22.4 °F 20.2 °F 30.22 in ESE 3.0 mph 6.0 mph 91% 0.00 in 0.00 W/m2
03:19 22.5 °F 20.5 °F 30.22 in ESE 3.0 mph 5.0 mph 92% 0.00 in 0.00 W/m2
03:24 22.6 °F 20.6 °F 30.22 in East 5.0 mph 6.0 mph 92% 0.00 in 0.00 W/m2
03:29 22.4 °F 20.4 °F 30.22 in East 3.0 mph 6.0 mph 92% 0.00 in 0.00 W/m2
03:34 22.2 °F 20.0 °F 30.22 in East 6.0 mph 7.0 mph 91% 0.00 in 0.00 W/m2
03:39 22.1 °F 19.9 °F 30.22 in ENE 7.0 mph 7.0 mph 91% 0.00 in 0.00 W/m2
03:44 22.0 °F 19.8 °F 30.22 in ENE 4.0 mph 7.0 mph 91% 0.00 in 0.00 W/m2
03:49 21.9 °F 19.9 °F 30.22 in ENE 5.0 mph 7.0 mph 92% 0.00 in 0.00 W/m2
03:54 22.0 °F 20.0 °F 30.22 in ENE 3.0 mph 5.0 mph 92% 0.00 in 0.00 W/m2
03:59 22.2 °F 20.2 °F 30.23 in ENE 3.0 mph 5.0 mph 92% 0.00 in 0.00 W/m2
04:04 22.1 °F 20.1 °F 30.23 in ENE 1.0 mph 4.0 mph 92% 0.00 in 0.00 W/m2
04:09 22.1 °F 20.1 °F 30.23 in ENE 2.0 mph 3.0 mph 92% 0.00 in 0.00 W/m2
04:14 22.2 °F 20.2 °F 30.23 in ENE 3.0 mph 3.0 mph 92% 0.00 in 0.00 W/m2
04:19 22.3 °F 20.3 °F 30.23 in ENE 3.0 mph 4.0 mph 92% 0.00 in 0.00 W/m2
04:24 22.4 °F 20.4 °F 30.23 in ENE 4.0 mph 5.0 mph 92% 0.00 in 0.00 W/m2
04:29 22.4 °F 20.4 °F 30.23 in ENE 3.0 mph 5.0 mph 92% 0.00 in 0.00 W/m2
04:34 22.4 °F 20.4 °F 30.23 in ENE 3.0 mph 5.0 mph 92% 0.00 in 0.00 W/m2
04:39 22.5 °F 20.5 °F 30.23 in ENE 2.0 mph 5.0 mph 92% 0.00 in 0.00 W/m2
04:44 22.5 °F 20.5 °F 30.23 in ENE 4.0 mph 4.0 mph 92% 0.00 in 0.00 W/m2
04:49 22.6 °F 20.6 °F 30.23 in ENE 3.0 mph 4.0 mph 92% 0.00 in 0.00 W/m2
04:54 22.7 °F 20.7 °F 30.23 in ENE 2.0 mph 4.0 mph 92% 0.00 in 0.00 W/m2
04:59 22.6 °F 20.6 °F 30.23 in ENE 1.0 mph 4.0 mph 92% 0.00 in 0.00 W/m2
05:04 22.5 °F 20.5 °F 30.23 in ENE 3.0 mph 3.0 mph 92% 0.00 in 0.00 W/m2
05:09 22.5 °F 20.5 °F 30.23 in ENE 2.0 mph 3.0 mph 92% 0.00 in 0.00 W/m2
05:14 22.6 °F 20.6 °F 30.23 in ENE 3.0 mph 4.0 mph 92% 0.00 in 0.00 W/m2
05:19 22.7 °F 20.7 °F 30.23 in ENE 4.0 mph 5.0 mph 92% 0.00 in 0.00 W/m2
05:24 22.8 °F 20.8 °F 30.23 in ENE 5.0 mph 5.0 mph 92% 0.00 in 0.00 W/m2
05:29 22.8 °F 20.8 °F 30.23 in ENE 3.0 mph 7.0 mph 92% 0.00 in 0.00 W/m2
05:34 22.7 °F 20.7 °F 30.23 in ENE 4.0 mph 7.0 mph 92% 0.00 in 0.00 W/m2
05:39 22.7 °F 20.7 °F 30.24 in ENE 4.0 mph 5.0 mph 92% 0.00 in 0.00 W/m2
05:44 22.8 °F 20.8 °F 30.24 in SW 4.0 mph 5.0 mph 92% 0.00 in 0.00 W/m2
05:49 22.7 °F 20.7 °F 30.24 in Calm   5.0 mph 92% 0.00 in 0.00 W/m2
05:54 22.7 °F 20.7 °F 30.24 in WSW 2.0 mph 5.0 mph 92% 0.00 in 0.00 W/m2
05:59 22.7 °F 20.7 °F 30.25 in WSW 3.0 mph 3.0 mph 92% 0.00 in 0.00 W/m2
06:04 22.7 °F 20.7 °F 30.25 in Calm   3.0 mph 92% 0.00 in 0.00 W/m2
06:09 22.7 °F 20.7 °F 30.25 in Calm   3.0 mph 92% 0.00 in 0.00 W/m2
06:14 22.6 °F 20.6 °F 30.26 in Calm   1.0 mph 92% 0.00 in 0.00 W/m2
06:19 22.6 °F 20.6 °F 30.26 in Calm   1.0 mph 92% 0.00 in 0.00 W/m2
06:24 22.5 °F 20.5 °F 30.26 in Calm     92% 0.00 in 0.00 W/m2
06:29 22.5 °F 20.5 °F 30.26 in Calm     92% 0.00 in 0.00 W/m2
06:34 22.6 °F 20.6 °F 30.27 in Calm     92% 0.00 in 0.00 W/m2
06:39 22.6 °F 20.6 °F 30.27 in Calm     92% 0.00 in 0.00 W/m2
06:44 22.6 °F 20.6 °F 30.27 in Calm     92% 0.00 in 0.00 W/m2
06:49 22.5 °F 20.5 °F 30.27 in WSW 1.0 mph 1.0 mph 92% 0.00 in 0.00 W/m2
06:54 22.6 °F 20.6 °F 30.27 in Calm   2.0 mph 92% 0.00 in 0.00 W/m2
06:59 22.6 °F 20.6 °F 30.27 in WSW 1.0 mph 2.0 mph 92% 0.00 in 0.00 W/m2
07:04 22.5 °F 20.5 °F 30.27 in WSW 2.0 mph 2.0 mph 92% 0.00 in 0.00 W/m2
07:09 22.5 °F 20.5 °F 30.27 in SW 2.0 mph 3.0 mph 92% 0.00 in 0.00 W/m2
07:14 22.4 °F 20.4 °F 30.27 in SW 3.0 mph 3.0 mph 92% 0.00 in 0.00 W/m2
07:19 22.4 °F 20.4 °F 30.27 in SE 3.0 mph 4.0 mph 92% 0.00 in 0.00 W/m2
07:24 22.4 °F 20.4 °F 30.27 in SE 1.0 mph 4.0 mph 92% 0.00 in 0.00 W/m2
07:29 22.3 °F 20.3 °F 30.27 in Calm   3.0 mph 92% 0.00 in 0.00 W/m2
07:34 22.3 °F 20.3 °F 30.27 in SE 1.0 mph 2.0 mph 92% 0.00 in 0.00 W/m2
07:39 22.3 °F 20.3 °F 30.27 in SE 3.0 mph 3.0 mph 92% 0.00 in 0.00 W/m2
07:44 22.4 °F 20.4 °F 30.28 in SE 2.0 mph 3.0 mph 92% 0.00 in 0.00 W/m2
07:49 22.1 °F 20.1 °F 30.28 in SSW 2.0 mph 3.0 mph 92% 0.00 in 0.00 W/m2
07:54 22.0 °F 20.0 °F 30.28 in Calm   3.0 mph 92% 0.00 in 5.00 W/m2
07:59 21.9 °F 19.9 °F 30.28 in Calm   3.0 mph 92% 0.00 in 7.00 W/m2
08:04 21.7 °F 19.7 °F 30.28 in Calm   1.0 mph 92% 0.00 in 11.00 W/m2
08:09 21.6 °F 19.6 °F 30.28 in Calm   2.0 mph 92% 0.00 in 12.00 W/m2
08:14 21.5 °F 19.5 °F 30.28 in Calm   2.0 mph 92% 0.00 in 16.00 W/m2
08:19 21.6 °F 19.6 °F 30.28 in Calm     92% 0.00 in 19.00 W/m2
08:24 21.6 °F 19.6 °F 30.28 in East 5.0 mph 5.0 mph 92% 0.00 in 28.00 W/m2
08:29 21.5 °F 19.5 °F 30.29 in Calm   5.0 mph 92% 0.00 in 39.00 W/m2
08:34 21.5 °F 19.8 °F 30.29 in East 2.0 mph 5.0 mph 93% 0.00 in 40.00 W/m2
08:39 21.3 °F 19.3 °F 30.29 in East 2.0 mph 3.0 mph 92% 0.00 in 39.00 W/m2
08:44 21.4 °F 19.7 °F 30.29 in Calm   3.0 mph 93% 0.00 in 46.00 W/m2
08:49 21.6 °F 19.9 °F 30.29 in East 5.0 mph 5.0 mph 93% 0.00 in 42.00 W/m2
08:54 21.4 °F 19.4 °F 30.29 in ENE 3.0 mph 5.0 mph 92% 0.00 in 63.00 W/m2
08:59 21.0 °F 19.0 °F 30.29 in ENE 2.0 mph 5.0 mph 92% 0.00 in 69.00 W/m2
09:04 21.2 °F 19.2 °F 30.30 in ENE 2.0 mph 3.0 mph 92% 0.00 in 167.00 W/m2
09:09 22.0 °F 20.3 °F 30.30 in ENE 1.0 mph 3.0 mph 93% 0.00 in 246.00 W/m2
09:14 23.1 °F 21.4 °F 30.30 in ENE 1.0 mph 3.0 mph 93% 0.00 in 141.00 W/m2
09:19 23.6 °F 21.9 °F 30.30 in ENE 1.0 mph 2.0 mph 93% 0.00 in 125.00 W/m2
09:24 23.2 °F 21.2 °F 30.30 in ENE 2.0 mph 3.0 mph 92% 0.00 in 127.00 W/m2
09:29 23.2 °F 21.2 °F 30.30 in Calm   3.0 mph 92% 0.00 in 135.00 W/m2
09:34 23.3 °F 21.1 °F 30.30 in ENE 3.0 mph 3.0 mph 91% 0.00 in 366.00 W/m2
09:39 23.2 °F 21.0 °F 30.30 in ENE 3.0 mph 4.0 mph 91% 0.00 in 218.00 W/m2
09:44 23.2 °F 21.0 °F 30.31 in ENE 3.0 mph 4.0 mph 91% 0.00 in 206.00 W/m2
09:49 23.4 °F 21.2 °F 30.31 in ENE 2.0 mph 4.0 mph 91% 0.00 in 248.00 W/m2
09:54 23.9 °F 21.9 °F 30.31 in ENE 3.0 mph 3.0 mph 92% 0.00 in 246.00 W/m2
09:59 24.2 °F 22.2 °F 30.31 in ENE 3.0 mph 3.0 mph 92% 0.00 in 227.00 W/m2
10:04 24.5 °F 22.5 °F 30.31 in WSW 3.0 mph 4.0 mph 92% 0.00 in 209.00 W/m2
10:09 24.5 °F 22.2 °F 30.32 in WSW 3.0 mph 4.0 mph 91% 0.00 in 216.00 W/m2
10:14 24.6 °F 22.3 °F 30.32 in WSW 2.0 mph 4.0 mph 91% 0.00 in 211.00 W/m2
10:19 24.5 °F 22.2 °F 30.32 in West 2.0 mph 4.0 mph 91% 0.00 in 218.00 W/m2
10:24 24.7 °F 22.4 °F 30.32 in West 3.0 mph 4.0 mph 91% 0.00 in 230.00 W/m2
10:29 24.9 °F 22.6 °F 30.32 in West 4.0 mph 4.0 mph 91% 0.00 in 258.00 W/m2
10:34 25.1 °F 22.8 °F 30.32 in West 3.0 mph 5.0 mph 91% 0.00 in 244.00 W/m2
10:39 25.3 °F 23.0 °F 30.32 in West 4.0 mph 5.0 mph 91% 0.00 in 281.00 W/m2
10:44 25.4 °F 23.1 °F 30.32 in West 4.0 mph 5.0 mph 91% 0.00 in 306.00 W/m2
10:49 25.4 °F 23.1 °F 30.32 in West 3.0 mph 5.0 mph 91% 0.00 in 279.00 W/m2
10:54 25.5 °F 23.2 °F 30.32 in West 4.0 mph 5.0 mph 91% 0.00 in 281.00 W/m2
10:59 25.8 °F 23.5 °F 30.33 in WSW 4.0 mph 5.0 mph 91% 0.00 in 292.00 W/m2
11:04 26.0 °F 23.7 °F 30.33 in WSW 4.0 mph 5.0 mph 91% 0.00 in 299.00 W/m2
11:09 26.2 °F 23.9 °F 30.33 in West 5.0 mph 6.0 mph 91% 0.00 in 302.00 W/m2
11:14 26.4 °F 24.1 °F 30.33 in West 5.0 mph 6.0 mph 91% 0.00 in 299.00 W/m2
11:19 26.6 °F 24.3 °F 30.33 in West 4.0 mph 6.0 mph 91% 0.00 in 294.00 W/m2
11:24 26.9 °F 24.6 °F 30.33 in West 5.0 mph 6.0 mph 91% 0.00 in 308.00 W/m2
11:29 27.2 °F 24.9 °F 30.33 in West 4.0 mph 7.0 mph 91% 0.00 in 292.00 W/m2
11:34 27.5 °F 25.2 °F 30.33 in West 5.0 mph 7.0 mph 91% 0.00 in 278.00 W/m2
11:39 27.8 °F 25.5 °F 30.33 in WSW 8.0 mph 8.0 mph 91% 0.00 in 302.00 W/m2
11:44 28.1 °F 25.8 °F 30.33 in West 7.0 mph 10.0 mph 91% 0.00 in 327.00 W/m2
11:49 28.5 °F 26.2 °F 30.33 in WNW 9.0 mph 15.0 mph 91% 0.00 in 359.00 W/m2
11:54 28.8 °F 26.5 °F 30.33 in WNW 7.0 mph 15.0 mph 91% 0.00 in 320.00 W/m2
11:59 28.8 °F 26.5 °F 30.33 in West 10.0 mph 13.0 mph 91% 0.00 in 357.00 W/m2
12:04 28.7 °F 26.4 °F 30.33 in West 8.0 mph 13.0 mph 91% 0.00 in 367.00 W/m2
12:09 28.6 °F 26.3 °F 30.33 in West 8.0 mph 12.0 mph 91% 0.00 in 392.00 W/m2
12:14 28.3 °F 26.0 °F 30.33 in WNW 11.0 mph 15.0 mph 91% 0.00 in 448.00 W/m2
12:19 28.5 °F 26.2 °F 30.33 in West 11.0 mph 15.0 mph 91% 0.00 in 441.00 W/m2
12:24 28.6 °F 26.3 °F 30.33 in West 8.0 mph 13.0 mph 91% 0.00 in 388.00 W/m2
12:29 28.4 °F 26.1 °F 30.33 in WSW 12.0 mph 16.0 mph 91% 0.00 in 399.00 W/m2
12:34 28.3 °F 26.0 °F 30.33 in West 11.0 mph 16.0 mph 91% 0.00 in 394.00 W/m2
12:39 28.6 °F 26.3 °F 30.33 in West 13.0 mph 15.0 mph 91% 0.00 in 408.00 W/m2
12:44 28.1 °F 25.8 °F 30.33 in West 11.0 mph 16.0 mph 91% 0.00 in 443.00 W/m2
12:49 28.0 °F 25.7 °F 30.33 in West 15.0 mph 16.0 mph 91% 0.00 in 526.00 W/m2
12:54 28.0 °F 25.7 °F 30.33 in West 13.0 mph 15.0 mph 91% 0.00 in 469.00 W/m2
12:59 27.9 °F 25.6 °F 30.33 in WSW 15.0 mph 18.0 mph 91% 0.00 in 471.00 W/m2
13:04 27.9 °F 25.6 °F 30.33 in West 10.0 mph 18.0 mph 91% 0.00 in 487.00 W/m2
13:09 28.2 °F 25.9 °F 30.33 in West 11.0 mph 17.0 mph 91% 0.00 in 508.00 W/m2
13:14 28.3 °F 26.0 °F 30.32 in WNW 13.0 mph 17.0 mph 91% 0.00 in 492.00 W/m2
13:19 28.0 °F 25.7 °F 30.33 in West 14.0 mph 16.0 mph 91% 0.00 in 543.00 W/m2
13:24 28.1 °F 25.8 °F 30.32 in West 13.0 mph 16.0 mph 91% 0.00 in 601.00 W/m2
13:29 28.6 °F 26.3 °F 30.32 in West 12.0 mph 16.0 mph 91% 0.00 in 606.00 W/m2
13:34 28.7 °F 26.1 °F 30.32 in West 12.0 mph 16.0 mph 90% 0.00 in 642.00 W/m2
13:39 28.5 °F 25.9 °F 30.32 in West 9.0 mph 16.0 mph 90% 0.00 in 554.00 W/m2
13:44 28.4 °F 25.8 °F 30.32 in West 16.0 mph 16.0 mph 90% 0.00 in 536.00 W/m2
13:49 28.0 °F 25.4 °F 30.32 in West 12.0 mph 18.0 mph 90% 0.00 in 545.00 W/m2
13:54 27.6 °F 25.1 °F 30.32 in West 13.0 mph 18.0 mph 90% 0.00 in 617.00 W/m2
13:59 27.5 °F 25.0 °F 30.32 in West 14.0 mph 18.0 mph 90% 0.00 in 719.00 W/m2
14:04 27.6 °F 24.8 °F 30.32 in WNW 12.0 mph 18.0 mph 89% 0.00 in 654.00 W/m2
14:09 27.9 °F 25.1 °F 30.32 in West 8.0 mph 15.0 mph 89% 0.00 in 591.00 W/m2
14:14 28.0 °F 25.2 °F 30.32 in West 6.0 mph 14.0 mph 89% 0.00 in 555.00 W/m2
14:19 28.7 °F 25.9 °F 30.32 in West 17.0 mph 17.0 mph 89% 0.00 in 561.00 W/m2
14:24 28.8 °F 26.0 °F 30.32 in West 15.0 mph 17.0 mph 89% 0.00 in 619.00 W/m2
14:29 28.8 °F 25.7 °F 30.32 in West 13.0 mph 17.0 mph 88% 0.00 in 413.00 W/m2
14:34 28.8 °F 25.7 °F 30.32 in WNW 9.0 mph 16.0 mph 88% 0.00 in 431.00 W/m2
14:39 29.3 °F 26.2 °F 30.32 in West 7.0 mph 15.0 mph 88% 0.00 in 524.00 W/m2
14:44 29.4 °F 26.0 °F 30.32 in WSW 7.0 mph 12.0 mph 87% 0.00 in 490.00 W/m2
14:49 29.6 °F 26.2 °F 30.31 in WNW 11.0 mph 13.0 mph 87% 0.00 in 886.00 W/m2
14:54 29.4 °F 26.0 °F 30.31 in West 10.0 mph 15.0 mph 87% 0.00 in 369.00 W/m2
14:59 29.9 °F 26.5 °F 30.31 in WSW 8.0 mph 15.0 mph 87% 0.00 in 515.00 W/m2
15:04 30.2 °F 26.5 °F 30.31 in West 9.0 mph 12.0 mph 86% 0.00 in 687.00 W/m2
15:09 30.0 °F 26.3 °F 30.31 in WSW 9.0 mph 14.0 mph 86% 0.00 in 777.00 W/m2
15:14 30.0 °F 26.3 °F 30.31 in West 8.0 mph 14.0 mph 86% 0.00 in 439.00 W/m2
15:19 30.0 °F 26.0 °F 30.30 in WSW 8.0 mph 12.0 mph 85% 0.00 in 591.00 W/m2
15:24 30.0 °F 26.0 °F 30.30 in West 8.0 mph 11.0 mph 85% 0.00 in 313.00 W/m2
15:29 29.9 °F 26.2 °F 30.30 in WSW 8.0 mph 10.0 mph 86% 0.00 in 417.00 W/m2
15:34 30.4 °F 26.7 °F 30.30 in West 8.0 mph 10.0 mph 86% 0.00 in 510.00 W/m2
15:39 30.7 °F 27.0 °F 30.30 in West 7.0 mph 10.0 mph 86% 0.00 in 884.00 W/m2
15:44 31.0 °F 27.0 °F 30.30 in West 7.0 mph 10.0 mph 85% 0.00 in 884.00 W/m2
15:49 30.6 °F 26.6 °F 30.30 in West 7.0 mph 10.0 mph 85% 0.00 in 362.00 W/m2
15:54 30.5 °F 26.5 °F 30.30 in West 7.0 mph 12.0 mph 85% 0.00 in 436.00 W/m2
15:59 31.0 °F 27.3 °F 30.29 in West 10.0 mph 13.0 mph 86% 0.00 in 640.00 W/m2
16:04 30.7 °F 26.7 °F 30.30 in West 9.0 mph 14.0 mph 85% 0.00 in 568.00 W/m2
16:09 30.8 °F 26.8 °F 30.30 in West 11.0 mph 14.0 mph 85% 0.00 in 629.00 W/m2
16:14 30.7 °F 26.7 °F 30.30 in West 8.0 mph 14.0 mph 85% 0.00 in 633.00 W/m2
16:19 30.7 °F 26.7 °F 30.30 in WSW 7.0 mph 14.0 mph 85% 0.00 in 352.00 W/m2
16:24 30.6 °F 26.9 °F 30.30 in West 9.0 mph 14.0 mph 86% 0.00 in 385.00 W/m2
16:29 30.8 °F 27.1 °F 30.30 in West 8.0 mph 12.0 mph 86% 0.00 in 578.00 W/m2
16:34 31.1 °F 27.1 °F 30.30 in West 12.0 mph 12.0 mph 85% 0.00 in 589.00 W/m2
16:39 31.5 °F 27.5 °F 30.30 in West 6.0 mph 12.0 mph 85% 0.00 in 591.00 W/m2
16:44 31.4 °F 27.1 °F 30.29 in WSW 10.0 mph 12.0 mph 84% 0.00 in 364.00 W/m2
16:49 31.5 °F 27.5 °F 30.29 in SW 7.0 mph 11.0 mph 85% 0.00 in 459.00 W/m2
16:54 32.1 °F 27.8 °F 30.29 in WSW 9.0 mph 10.0 mph 84% 0.00 in 508.00 W/m2
16:59 32.2 °F 27.9 °F 30.29 in West 8.0 mph 11.0 mph 84% 0.00 in 462.00 W/m2
17:04 32.3 °F 28.0 °F 30.29 in WSW 8.0 mph 11.0 mph 84% 0.00 in 443.00 W/m2
17:09 32.3 °F 28.0 °F 30.29 in WSW 11.0 mph 13.0 mph 84% 0.00 in 441.00 W/m2
17:14 32.4 °F 28.1 °F 30.29 in West 8.0 mph 13.0 mph 84% 0.00 in 425.00 W/m2
17:19 32.3 °F 28.0 °F 30.29 in West 8.0 mph 12.0 mph 84% 0.00 in 413.00 W/m2
17:24 32.4 °F 28.1 °F 30.29 in West 9.0 mph 11.0 mph 84% 0.00 in 397.00 W/m2
17:29 32.4 °F 28.1 °F 30.29 in West 9.0 mph 11.0 mph 84% 0.00 in 383.00 W/m2
17:34 32.6 °F 28.3 °F 30.28 in West 7.0 mph 11.0 mph 84% 0.00 in 367.00 W/m2
17:39 32.8 °F 28.5 °F 30.28 in WSW 8.0 mph 10.0 mph 84% 0.00 in 357.00 W/m2
17:44 32.8 °F 28.5 °F 30.28 in WSW 8.0 mph 12.0 mph 84% 0.00 in 339.00 W/m2
17:49 32.7 °F 28.4 °F 30.28 in WSW 10.0 mph 12.0 mph 84% 0.00 in 323.00 W/m2
17:54 32.8 °F 28.5 °F 30.28 in WSW 9.0 mph 13.0 mph 84% 0.00 in 309.00 W/m2
17:59 32.9 °F 28.6 °F 30.28 in WSW 9.0 mph 13.0 mph 84% 0.00 in 294.00 W/m2
18:04 33.0 °F 28.7 °F 30.28 in West 8.0 mph 11.0 mph 84% 0.00 in 276.00 W/m2
18:09 33.2 °F 28.9 °F 30.28 in WSW 8.0 mph 10.0 mph 84% 0.00 in 257.00 W/m2
18:14 33.2 °F 28.9 °F 30.27 in WSW 7.0 mph 10.0 mph 84% 0.00 in 237.00 W/m2
18:19 33.3 °F 28.7 °F 30.27 in WSW 7.0 mph 10.0 mph 83% 0.00 in 221.00 W/m2
18:24 33.3 °F 28.7 °F 30.28 in WSW 7.0 mph 10.0 mph 83% 0.00 in 200.00 W/m2
18:29 33.4 °F 28.8 °F 30.27 in WSW 8.0 mph 10.0 mph 83% 0.00 in 185.00 W/m2
18:34 33.4 °F 28.8 °F 30.27 in West 7.0 mph 9.0 mph 83% 0.00 in 163.00 W/m2
18:39 33.4 °F 28.8 °F 30.28 in WSW 5.0 mph 9.0 mph 83% 0.00 in 144.00 W/m2
18:44 33.3 °F 28.7 °F 30.27 in WSW 5.0 mph 8.0 mph 83% 0.00 in 127.00 W/m2
18:49 33.3 °F 28.7 °F 30.28 in West 6.0 mph 8.0 mph 83% 0.00 in 107.00 W/m2
18:54 33.2 °F 28.6 °F 30.27 in West 5.0 mph 8.0 mph 83% 0.00 in 95.00 W/m2
18:59 33.1 °F 28.5 °F 30.27 in West 3.0 mph 8.0 mph 83% 0.00 in 79.00 W/m2
19:04 33.2 °F 28.6 °F 30.27 in WSW 4.0 mph 7.0 mph 83% 0.00 in 65.00 W/m2
19:09 33.2 °F 28.6 °F 30.27 in WSW 1.0 mph 5.0 mph 83% 0.00 in 53.00 W/m2
19:14 33.4 °F 28.8 °F 30.27 in WSW 1.0 mph 4.0 mph 83% 0.00 in 40.00 W/m2
19:19 33.5 °F 28.9 °F 30.27 in West 1.0 mph 3.0 mph 83% 0.00 in 30.00 W/m2
19:24 33.7 °F 29.1 °F 30.27 in Calm   3.0 mph 83% 0.00 in 25.00 W/m2
19:29 33.9 °F 29.0 °F 30.27 in Calm   2.0 mph 82% 0.00 in 19.00 W/m2
19:34 33.8 °F 28.6 °F 30.27 in WSW 1.0 mph 2.0 mph 81% 0.00 in 16.00 W/m2
19:39 33.4 °F 28.2 °F 30.27 in SW 2.0 mph 3.0 mph 81% 0.00 in 12.00 W/m2
19:44 33.0 °F 27.8 °F 30.27 in SW 2.0 mph 3.0 mph 81% 0.00 in 9.00 W/m2
19:49 32.5 °F 27.6 °F 30.27 in SW 3.0 mph 5.0 mph 82% 0.00 in 5.00 W/m2
19:54 31.9 °F 27.0 °F 30.26 in SW 3.0 mph 5.0 mph 82% 0.00 in 0.00 W/m2
19:59 31.3 °F 26.7 °F 30.26 in SW 4.0 mph 5.0 mph 83% 0.00 in 0.00 W/m2
20:04 30.7 °F 26.4 °F 30.26 in SW 4.0 mph 5.0 mph 84% 0.00 in 0.00 W/m2
20:09 30.1 °F 25.8 °F 30.26 in SW 3.0 mph 5.0 mph 84% 0.00 in 0.00 W/m2
20:14 29.5 °F 25.5 °F 30.26 in SW 3.0 mph 5.0 mph 85% 0.00 in 0.00 W/m2
20:19 28.9 °F 25.0 °F 30.26 in WSW 4.0 mph 6.0 mph 85% 0.00 in 0.00 W/m2
20:24 28.4 °F 24.7 °F 30.26 in SW 4.0 mph 6.0 mph 86% 0.00 in 0.00 W/m2
20:29 28.1 °F 24.7 °F 30.26 in SW 3.0 mph 5.0 mph 87% 0.00 in 0.00 W/m2
20:34 27.9 °F 24.5 °F 30.26 in SW 4.0 mph 5.0 mph 87% 0.00 in 0.00 W/m2
20:39 27.7 °F 24.3 °F 30.26 in SW 4.0 mph 5.0 mph 87% 0.00 in 0.00 W/m2
20:44 27.3 °F 23.9 °F 30.26 in SW 5.0 mph 5.0 mph 87% 0.00 in 0.00 W/m2
20:49 26.9 °F 23.5 °F 30.26 in SW 3.0 mph 5.0 mph 87% 0.00 in 0.00 W/m2
20:54 26.7 °F 23.6 °F 30.26 in SW 3.0 mph 4.0 mph 88% 0.00 in 0.00 W/m2
20:59 26.5 °F 23.4 °F 30.26 in SW 3.0 mph 4.0 mph 88% 0.00 in 0.00 W/m2
21:04 26.3 °F 23.2 °F 30.26 in SW 3.0 mph 4.0 mph 88% 0.00 in 0.00 W/m2
21:09 26.2 °F 23.4 °F 30.26 in SW 3.0 mph 4.0 mph 89% 0.00 in 0.00 W/m2
21:14 26.3 °F 23.8 °F 30.26 in SW 3.0 mph 3.0 mph 90% 0.00 in 0.00 W/m2
21:19 26.6 °F 24.1 °F 30.26 in WSW 3.0 mph 4.0 mph 90% 0.00 in 0.00 W/m2
21:24 26.8 °F 24.3 °F 30.26 in WSW 3.0 mph 4.0 mph 90% 0.00 in 0.00 W/m2
21:29 26.9 °F 24.1 °F 30.26 in WSW 2.0 mph 4.0 mph 89% 0.00 in 0.00 W/m2
21:34 26.7 °F 23.9 °F 30.26 in WSW 3.0 mph 4.0 mph 89% 0.00 in 0.00 W/m2
21:39 26.5 °F 23.7 °F 30.26 in WSW 3.0 mph 3.0 mph 89% 0.00 in 0.00 W/m2
21:44 26.4 °F 23.9 °F 30.26 in WSW 3.0 mph 3.0 mph 90% 0.00 in 0.00 W/m2
21:49 26.3 °F 23.8 °F 30.26 in WSW 3.0 mph 3.0 mph 90% 0.00 in 0.00 W/m2
21:54 26.3 °F 23.8 °F 30.26 in WSW 3.0 mph 4.0 mph 90% 0.00 in 0.00 W/m2
21:59 26.2 °F 23.7 °F 30.25 in WSW 3.0 mph 4.0 mph 90% 0.00 in 0.00 W/m2
22:04 26.1 °F 23.6 °F 30.26 in WSW 4.0 mph 4.0 mph 90% 0.00 in 0.00 W/m2
22:09 26.0 °F 23.5 °F 30.26 in WSW 3.0 mph 4.0 mph 90% 0.00 in 0.00 W/m2
22:14 25.8 °F 23.3 °F 30.26 in WSW 4.0 mph 4.0 mph 90% 0.00 in 0.00 W/m2
22:19 25.6 °F 22.8 °F 30.26 in WSW 5.0 mph 5.0 mph 89% 0.00 in 0.00 W/m2
22:24 25.3 °F 22.5 °F 30.26 in WSW 4.0 mph 6.0 mph 89% 0.00 in 0.00 W/m2
22:29 25.1 °F 22.3 °F 30.26 in SW 5.0 mph 6.0 mph 89% 0.00 in 0.00 W/m2
22:34 24.9 °F 22.4 °F 30.25 in WSW 4.0 mph 5.0 mph 90% 0.00 in 0.00 W/m2
22:39 24.7 °F 22.2 °F 30.25 in SW 4.0 mph 5.0 mph 90% 0.00 in 0.00 W/m2
22:44 24.5 °F 22.0 °F 30.25 in SW 5.0 mph 5.0 mph 90% 0.00 in 0.00 W/m2
22:49 24.4 °F 21.9 °F 30.25 in SW 4.0 mph 5.0 mph 90% 0.00 in 0.00 W/m2
22:54 24.2 °F 21.7 °F 30.25 in WSW 3.0 mph 5.0 mph 90% 0.00 in 0.00 W/m2
22:59 24.0 °F 21.5 °F 30.25 in WSW 5.0 mph 5.0 mph 90% 0.00 in 0.00 W/m2
23:04 23.9 °F 21.4 °F 30.25 in WSW 4.0 mph 5.0 mph 90% 0.00 in 0.00 W/m2
23:09 23.8 °F 21.3 °F 30.25 in WSW 4.0 mph 5.0 mph 90% 0.00 in 0.00 W/m2
23:14 23.7 °F 21.2 °F 30.25 in WSW 4.0 mph 5.0 mph 90% 0.00 in 0.00 W/m2
23:19 23.7 °F 21.2 °F 30.25 in WSW 4.0 mph 5.0 mph 90% 0.00 in 0.00 W/m2
23:24 23.6 °F 21.1 °F 30.25 in WSW 4.0 mph 5.0 mph 90% 0.00 in 0.00 W/m2
23:29 23.6 °F 21.1 °F 30.25 in WSW 3.0 mph 5.0 mph 90% 0.00 in 0.00 W/m2
23:34 23.4 °F 20.9 °F 30.25 in SW 3.0 mph 5.0 mph 90% 0.00 in 0.00 W/m2
23:39 23.2 °F 20.7 °F 30.25 in SW 3.0 mph 5.0 mph 90% 0.00 in 0.00 W/m2
23:44 23.0 °F 20.5 °F 30.25 in SW 5.0 mph 5.0 mph 90% 0.00 in 0.00 W/m2
23:49 22.8 °F 20.3 °F 30.25 in SW 5.0 mph 5.0 mph 90% 0.00 in 0.00 W/m2
23:54 22.5 °F 20.0 °F 30.25 in SW 4.0 mph 5.0 mph 90% 0.00 in 0.00 W/m2
23:59 22.2 °F 19.7 °F 30.24 in SW 3.0 mph 5.0 mph 90% 0.00 in 0.00 W/m2
Bismarck, North Dakota, USA
Compliments of Weather Underground - 4 mb